sensor_id;sensor_type;location;lat;lon;timestamp;P1;durP1;ratioP1;P2;durP2;ratioP2
41903;SDS011;27586;51.124;4.182;2024-02-16T00:00:17;2.72;;;2.20;;
41903;SDS011;27586;51.124;4.182;2024-02-16T00:02:43;3.90;;;2.30;;
41903;SDS011;27586;51.124;4.182;2024-02-16T00:05:09;2.33;;;2.08;;
41903;SDS011;27586;51.124;4.182;2024-02-16T00:07:39;2.88;;;1.90;;
41903;SDS011;27586;51.124;4.182;2024-02-16T00:10:05;2.40;;;2.20;;
41903;SDS011;27586;51.124;4.182;2024-02-16T00:12:32;2.25;;;2.00;;
41903;SDS011;27586;51.124;4.182;2024-02-16T00:14:58;3.28;;;2.30;;
41903;SDS011;27586;51.124;4.182;2024-02-16T00:17:24;3.00;;;2.40;;
41903;SDS011;27586;51.124;4.182;2024-02-16T00:19:52;3.00;;;2.22;;
41903;SDS011;27586;51.124;4.182;2024-02-16T00:22:18;2.88;;;2.20;;
41903;SDS011;27586;51.124;4.182;2024-02-16T00:24:44;4.00;;;2.40;;
41903;SDS011;27586;51.124;4.182;2024-02-16T00:27:10;2.88;;;2.20;;
41903;SDS011;27586;51.124;4.182;2024-02-16T00:29:35;2.88;;;2.30;;
41903;SDS011;27586;51.124;4.182;2024-02-16T00:32:03;2.70;;;2.40;;
41903;SDS011;27586;51.124;4.182;2024-02-16T00:34:31;2.40;;;2.13;;
41903;SDS011;27586;51.124;4.182;2024-02-16T00:36:57;2.97;;;2.50;;
41903;SDS011;27586;51.124;4.182;2024-02-16T00:39:23;3.90;;;2.63;;
41903;SDS011;27586;51.124;4.182;2024-02-16T00:41:50;3.60;;;2.35;;
41903;SDS011;27586;51.124;4.182;2024-02-16T00:44:16;3.30;;;2.40;;
41903;SDS011;27586;51.124;4.182;2024-02-16T00:46:42;3.60;;;2.63;;
41903;SDS011;27586;51.124;4.182;2024-02-16T00:49:11;4.43;;;2.85;;
41903;SDS011;27586;51.124;4.182;2024-02-16T00:51:37;3.38;;;2.38;;
41903;SDS011;27586;51.124;4.182;2024-02-16T00:54:03;3.28;;;2.50;;
41903;SDS011;27586;51.124;4.182;2024-02-16T00:56:30;2.60;;;2.40;;
41903;SDS011;27586;51.124;4.182;2024-02-16T00:58:57;3.38;;;2.30;;
41903;SDS011;27586;51.124;4.182;2024-02-16T01:01:22;3.63;;;2.40;;
41903;SDS011;27586;51.124;4.182;2024-02-16T01:03:50;3.10;;;2.40;;
41903;SDS011;27586;51.124;4.182;2024-02-16T01:06:19;3.63;;;2.55;;
41903;SDS011;27586;51.124;4.182;2024-02-16T01:08:45;3.60;;;2.50;;
41903;SDS011;27586;51.124;4.182;2024-02-16T01:11:11;3.60;;;2.40;;
41903;SDS011;27586;51.124;4.182;2024-02-16T01:13:38;4.35;;;2.75;;
41903;SDS011;27586;51.124;4.182;2024-02-16T01:16:04;4.07;;;2.60;;
41903;SDS011;27586;51.124;4.182;2024-02-16T01:18:30;2.92;;;2.17;;
41903;SDS011;27586;51.124;4.182;2024-02-16T01:20:57;3.38;;;2.50;;
41903;SDS011;27586;51.124;4.182;2024-02-16T01:23:23;2.88;;;2.40;;
41903;SDS011;27586;51.124;4.182;2024-02-16T01:25:49;2.75;;;2.20;;
41903;SDS011;27586;51.124;4.182;2024-02-16T01:28:15;3.65;;;2.40;;
41903;SDS011;27586;51.124;4.182;2024-02-16T01:30:41;3.17;;;2.20;;
41903;SDS011;27586;51.124;4.182;2024-02-16T01:33:07;3.30;;;2.50;;
41903;SDS011;27586;51.124;4.182;2024-02-16T01:35:33;4.70;;;2.45;;
41903;SDS011;27586;51.124;4.182;2024-02-16T01:37:59;2.38;;;2.17;;
41903;SDS011;27586;51.124;4.182;2024-02-16T01:40:26;2.80;;;2.30;;
41903;SDS011;27586;51.124;4.182;2024-02-16T01:42:52;3.33;;;2.35;;
41903;SDS011;27586;51.124;4.182;2024-02-16T01:45:19;3.88;;;2.05;;
41903;SDS011;27586;51.124;4.182;2024-02-16T01:47:45;2.72;;;2.40;;
41903;SDS011;27586;51.124;4.182;2024-02-16T01:50:12;3.00;;;2.40;;
41903;SDS011;27586;51.124;4.182;2024-02-16T01:52:39;2.40;;;2.17;;
41903;SDS011;27586;51.124;4.182;2024-02-16T01:55:05;2.72;;;2.13;;
41903;SDS011;27586;51.124;4.182;2024-02-16T01:57:35;3.03;;;2.25;;
41903;SDS011;27586;51.124;4.182;2024-02-16T02:00:02;2.63;;;2.40;;
41903;SDS011;27586;51.124;4.182;2024-02-16T02:02:28;3.70;;;2.30;;
41903;SDS011;27586;51.124;4.182;2024-02-16T02:04:54;2.97;;;2.00;;
41903;SDS011;27586;51.124;4.182;2024-02-16T02:07:24;3.10;;;2.13;;
41903;SDS011;27586;51.124;4.182;2024-02-16T02:09:51;2.60;;;2.30;;
41903;SDS011;27586;51.124;4.182;2024-02-16T02:12:16;3.22;;;2.05;;
41903;SDS011;27586;51.124;4.182;2024-02-16T02:14:43;2.88;;;2.38;;
41903;SDS011;27586;51.124;4.182;2024-02-16T02:17:09;2.65;;;2.40;;
41903;SDS011;27586;51.124;4.182;2024-02-16T02:19:34;3.53;;;2.40;;
41903;SDS011;27586;51.124;4.182;2024-02-16T02:22:00;3.67;;;2.13;;
41903;SDS011;27586;51.124;4.182;2024-02-16T02:24:26;2.33;;;1.90;;
41903;SDS011;27586;51.124;4.182;2024-02-16T02:26:52;2.75;;;2.20;;
41903;SDS011;27586;51.124;4.182;2024-02-16T02:29:17;2.85;;;2.10;;
41903;SDS011;27586;51.124;4.182;2024-02-16T02:31:43;3.13;;;2.70;;
41903;SDS011;27586;51.124;4.182;2024-02-16T02:34:09;4.35;;;2.40;;
41903;SDS011;27586;51.124;4.182;2024-02-16T02:36:35;2.78;;;2.20;;
41903;SDS011;27586;51.124;4.182;2024-02-16T02:39:01;2.72;;;2.50;;
41903;SDS011;27586;51.124;4.182;2024-02-16T02:41:27;3.60;;;2.40;;
41903;SDS011;27586;51.124;4.182;2024-02-16T02:43:52;4.15;;;2.50;;
41903;SDS011;27586;51.124;4.182;2024-02-16T02:46:18;3.38;;;2.50;;
41903;SDS011;27586;51.124;4.182;2024-02-16T02:48:44;3.80;;;2.75;;
41903;SDS011;27586;51.124;4.182;2024-02-16T02:51:10;3.22;;;2.47;;
41903;SDS011;27586;51.124;4.182;2024-02-16T02:53:36;4.75;;;2.63;;
41903;SDS011;27586;51.124;4.182;2024-02-16T02:56:03;3.28;;;2.63;;
41903;SDS011;27586;51.124;4.182;2024-02-16T02:58:29;4.05;;;2.95;;
41903;SDS011;27586;51.124;4.182;2024-02-16T03:00:55;3.85;;;2.65;;
41903;SDS011;27586;51.124;4.182;2024-02-16T03:03:21;3.28;;;2.80;;
41903;SDS011;27586;51.124;4.182;2024-02-16T03:05:47;4.53;;;2.95;;
41903;SDS011;27586;51.124;4.182;2024-02-16T03:08:14;3.72;;;2.80;;
41903;SDS011;27586;51.124;4.182;2024-02-16T03:10:39;3.15;;;2.60;;
41903;SDS011;27586;51.124;4.182;2024-02-16T03:13:05;3.25;;;2.78;;
41903;SDS011;27586;51.124;4.182;2024-02-16T03:15:34;4.40;;;2.92;;
41903;SDS011;27586;51.124;4.182;2024-02-16T03:18:01;3.45;;;3.00;;
41903;SDS011;27586;51.124;4.182;2024-02-16T03:20:27;3.65;;;2.70;;
41903;SDS011;27586;51.124;4.182;2024-02-16T03:22:53;3.33;;;3.03;;
41903;SDS011;27586;51.124;4.182;2024-02-16T03:25:18;3.55;;;3.10;;
41903;SDS011;27586;51.124;4.182;2024-02-16T03:27:45;3.70;;;3.30;;
41903;SDS011;27586;51.124;4.182;2024-02-16T03:30:11;3.80;;;3.13;;
41903;SDS011;27586;51.124;4.182;2024-02-16T03:32:36;5.95;;;3.42;;
41903;SDS011;27586;51.124;4.182;2024-02-16T03:35:02;5.38;;;3.78;;
41903;SDS011;27586;51.124;4.182;2024-02-16T03:37:29;3.60;;;3.20;;
41903;SDS011;27586;51.124;4.182;2024-02-16T03:39:55;4.72;;;3.42;;
41903;SDS011;27586;51.124;4.182;2024-02-16T03:42:21;5.03;;;3.35;;
41903;SDS011;27586;51.124;4.182;2024-02-16T03:44:47;4.45;;;3.53;;
41903;SDS011;27586;51.124;4.182;2024-02-16T03:47:12;4.00;;;3.28;;
41903;SDS011;27586;51.124;4.182;2024-02-16T03:49:39;4.88;;;3.40;;
41903;SDS011;27586;51.124;4.182;2024-02-16T03:52:05;4.47;;;3.63;;
41903;SDS011;27586;51.124;4.182;2024-02-16T03:54:30;5.00;;;3.13;;
41903;SDS011;27586;51.124;4.182;2024-02-16T03:56:57;4.85;;;3.40;;
41903;SDS011;27586;51.124;4.182;2024-02-16T03:59:23;4.30;;;3.50;;
41903;SDS011;27586;51.124;4.182;2024-02-16T04:01:49;4.88;;;3.35;;
41903;SDS011;27586;51.124;4.182;2024-02-16T04:04:15;4.30;;;3.35;;
41903;SDS011;27586;51.124;4.182;2024-02-16T04:06:41;5.32;;;3.80;;
41903;SDS011;27586;51.124;4.182;2024-02-16T04:09:07;5.35;;;3.72;;
41903;SDS011;27586;51.124;4.182;2024-02-16T04:11:33;5.60;;;3.47;;
41903;SDS011;27586;51.124;4.182;2024-02-16T04:13:59;4.13;;;3.25;;
41903;SDS011;27586;51.124;4.182;2024-02-16T04:16:25;4.32;;;3.08;;
41903;SDS011;27586;51.124;4.182;2024-02-16T04:18:53;4.43;;;3.75;;
41903;SDS011;27586;51.124;4.182;2024-02-16T04:21:20;4.65;;;3.75;;
41903;SDS011;27586;51.124;4.182;2024-02-16T04:23:46;3.85;;;3.05;;
41903;SDS011;27586;51.124;4.182;2024-02-16T04:26:11;5.05;;;3.40;;
41903;SDS011;27586;51.124;4.182;2024-02-16T04:28:37;4.85;;;4.13;;
41903;SDS011;27586;51.124;4.182;2024-02-16T04:31:04;4.82;;;3.78;;
41903;SDS011;27586;51.124;4.182;2024-02-16T04:33:29;5.70;;;3.78;;
41903;SDS011;27586;51.124;4.182;2024-02-16T04:35:55;7.47;;;3.60;;
41903;SDS011;27586;51.124;4.182;2024-02-16T04:38:21;6.10;;;3.50;;
41903;SDS011;27586;51.124;4.182;2024-02-16T04:40:46;5.75;;;3.47;;
41903;SDS011;27586;51.124;4.182;2024-02-16T04:43:12;4.30;;;3.70;;
41903;SDS011;27586;51.124;4.182;2024-02-16T04:45:38;4.38;;;3.75;;
41903;SDS011;27586;51.124;4.182;2024-02-16T04:48:04;4.82;;;3.45;;
41903;SDS011;27586;51.124;4.182;2024-02-16T04:50:31;6.45;;;3.67;;
41903;SDS011;27586;51.124;4.182;2024-02-16T04:52:57;5.97;;;3.50;;
41903;SDS011;27586;51.124;4.182;2024-02-16T04:55:23;5.32;;;3.70;;
41903;SDS011;27586;51.124;4.182;2024-02-16T04:57:48;5.25;;;3.88;;
41903;SDS011;27586;51.124;4.182;2024-02-16T05:00:14;5.50;;;3.47;;
41903;SDS011;27586;51.124;4.182;2024-02-16T05:02:40;5.68;;;3.78;;
41903;SDS011;27586;51.124;4.182;2024-02-16T05:05:06;4.22;;;3.50;;
41903;SDS011;27586;51.124;4.182;2024-02-16T05:07:32;3.75;;;3.35;;
41903;SDS011;27586;51.124;4.182;2024-02-16T05:09:58;4.30;;;3.45;;
41903;SDS011;27586;51.124;4.182;2024-02-16T05:12:24;4.32;;;3.40;;
41903;SDS011;27586;51.124;4.182;2024-02-16T05:14:51;7.30;;;3.70;;
41903;SDS011;27586;51.124;4.182;2024-02-16T05:17:18;3.85;;;3.45;;
41903;SDS011;27586;51.124;4.182;2024-02-16T05:19:45;4.63;;;2.97;;
41903;SDS011;27586;51.124;4.182;2024-02-16T05:22:10;4.47;;;3.45;;
41903;SDS011;27586;51.124;4.182;2024-02-16T05:24:36;4.57;;;3.35;;
41903;SDS011;27586;51.124;4.182;2024-02-16T05:27:02;3.88;;;3.10;;
41903;SDS011;27586;51.124;4.182;2024-02-16T05:29:28;4.43;;;3.30;;
41903;SDS011;27586;51.124;4.182;2024-02-16T05:31:53;4.95;;;3.47;;
41903;SDS011;27586;51.124;4.182;2024-02-16T05:34:19;3.30;;;3.00;;
41903;SDS011;27586;51.124;4.182;2024-02-16T05:36:45;4.75;;;3.05;;
41903;SDS011;27586;51.124;4.182;2024-02-16T05:39:11;3.92;;;3.33;;
41903;SDS011;27586;51.124;4.182;2024-02-16T05:41:57;3.42;;;3.10;;
41903;SDS011;27586;51.124;4.182;2024-02-16T05:44:22;4.78;;;3.22;;
41903;SDS011;27586;51.124;4.182;2024-02-16T05:46:48;4.90;;;3.20;;
41903;SDS011;27586;51.124;4.182;2024-02-16T05:49:14;4.50;;;3.03;;
41903;SDS011;27586;51.124;4.182;2024-02-16T05:51:43;4.28;;;3.22;;
41903;SDS011;27586;51.124;4.182;2024-02-16T05:54:28;4.18;;;3.33;;
41903;SDS011;27586;51.124;4.182;2024-02-16T05:56:54;5.28;;;3.50;;
41903;SDS011;27586;51.124;4.182;2024-02-16T05:59:19;5.35;;;3.65;;
41903;SDS011;27586;51.124;4.182;2024-02-16T06:01:47;4.60;;;3.90;;
41903;SDS011;27586;51.124;4.182;2024-02-16T06:04:12;5.03;;;3.67;;
41903;SDS011;27586;51.124;4.182;2024-02-16T06:06:38;4.63;;;3.80;;
41903;SDS011;27586;51.124;4.182;2024-02-16T06:09:04;7.00;;;4.30;;
41903;SDS011;27586;51.124;4.182;2024-02-16T06:11:31;8.35;;;4.25;;
41903;SDS011;27586;51.124;4.182;2024-02-16T06:13:57;5.25;;;3.42;;
41903;SDS011;27586;51.124;4.182;2024-02-16T06:16:22;4.80;;;3.95;;
41903;SDS011;27586;51.124;4.182;2024-02-16T06:18:48;4.15;;;3.75;;
41903;SDS011;27586;51.124;4.182;2024-02-16T06:21:14;4.45;;;3.85;;
41903;SDS011;27586;51.124;4.182;2024-02-16T06:23:41;4.55;;;3.95;;
41903;SDS011;27586;51.124;4.182;2024-02-16T06:26:06;4.85;;;3.70;;
41903;SDS011;27586;51.124;4.182;2024-02-16T06:28:32;6.82;;;4.07;;
41903;SDS011;27586;51.124;4.182;2024-02-16T06:30:58;5.22;;;3.72;;
41903;SDS011;27586;51.124;4.182;2024-02-16T06:33:23;5.82;;;3.60;;
41903;SDS011;27586;51.124;4.182;2024-02-16T06:35:49;3.72;;;3.33;;
41903;SDS011;27586;51.124;4.182;2024-02-16T06:38:15;5.43;;;3.67;;
41903;SDS011;27586;51.124;4.182;2024-02-16T06:40:41;5.15;;;3.50;;
41903;SDS011;27586;51.124;4.182;2024-02-16T06:43:06;5.10;;;3.45;;
41903;SDS011;27586;51.124;4.182;2024-02-16T06:45:33;6.55;;;3.72;;
41903;SDS011;27586;51.124;4.182;2024-02-16T06:47:59;4.38;;;3.47;;
41903;SDS011;27586;51.124;4.182;2024-02-16T06:50:25;6.82;;;3.90;;
41903;SDS011;27586;51.124;4.182;2024-02-16T06:52:51;5.82;;;3.55;;
41903;SDS011;27586;51.124;4.182;2024-02-16T06:55:16;6.93;;;4.13;;
41903;SDS011;27586;51.124;4.182;2024-02-16T06:57:42;4.55;;;3.30;;
41903;SDS011;27586;51.124;4.182;2024-02-16T07:00:08;4.65;;;3.55;;
41903;SDS011;27586;51.124;4.182;2024-02-16T07:02:35;5.05;;;3.55;;
41903;SDS011;27586;51.124;4.182;2024-02-16T07:05:00;4.95;;;3.60;;
41903;SDS011;27586;51.124;4.182;2024-02-16T07:07:26;4.57;;;3.60;;
41903;SDS011;27586;51.124;4.182;2024-02-16T07:09:52;4.75;;;3.58;;
41903;SDS011;27586;51.124;4.182;2024-02-16T07:12:18;5.03;;;3.70;;
41903;SDS011;27586;51.124;4.182;2024-02-16T07:14:44;4.57;;;3.45;;
41903;SDS011;27586;51.124;4.182;2024-02-16T07:17:11;6.38;;;3.58;;
41903;SDS011;27586;51.124;4.182;2024-02-16T07:19:37;4.18;;;3.15;;
41903;SDS011;27586;51.124;4.182;2024-02-16T07:22:03;5.60;;;3.45;;
41903;SDS011;27586;51.124;4.182;2024-02-16T07:24:31;4.55;;;3.22;;
41903;SDS011;27586;51.124;4.182;2024-02-16T07:26:57;4.03;;;3.22;;
41903;SDS011;27586;51.124;4.182;2024-02-16T07:29:22;5.05;;;3.47;;
41903;SDS011;27586;51.124;4.182;2024-02-16T07:31:48;5.60;;;3.63;;
41903;SDS011;27586;51.124;4.182;2024-02-16T07:34:16;7.00;;;4.00;;
41903;SDS011;27586;51.124;4.182;2024-02-16T07:36:42;4.03;;;3.40;;
41903;SDS011;27586;51.124;4.182;2024-02-16T07:39:07;4.60;;;3.35;;
41903;SDS011;27586;51.124;4.182;2024-02-16T07:41:37;5.05;;;3.80;;
41903;SDS011;27586;51.124;4.182;2024-02-16T07:44:03;4.05;;;3.60;;
41903;SDS011;27586;51.124;4.182;2024-02-16T07:46:29;6.25;;;3.92;;
41903;SDS011;27586;51.124;4.182;2024-02-16T07:48:55;5.63;;;4.00;;
41903;SDS011;27586;51.124;4.182;2024-02-16T07:51:21;6.07;;;4.18;;
41903;SDS011;27586;51.124;4.182;2024-02-16T07:53:46;6.60;;;4.45;;
41903;SDS011;27586;51.124;4.182;2024-02-16T07:56:12;5.00;;;4.43;;
41903;SDS011;27586;51.124;4.182;2024-02-16T07:58:38;6.07;;;4.32;;
41903;SDS011;27586;51.124;4.182;2024-02-16T08:01:08;4.25;;;3.80;;
41903;SDS011;27586;51.124;4.182;2024-02-16T08:03:36;5.55;;;4.22;;
41903;SDS011;27586;51.124;4.182;2024-02-16T08:06:02;5.25;;;4.00;;
41903;SDS011;27586;51.124;4.182;2024-02-16T08:08:28;7.47;;;4.03;;
41903;SDS011;27586;51.124;4.182;2024-02-16T08:10:54;5.38;;;4.38;;
41903;SDS011;27586;51.124;4.182;2024-02-16T08:13:20;8.35;;;4.60;;
41903;SDS011;27586;51.124;4.182;2024-02-16T08:15:46;6.28;;;4.63;;
41903;SDS011;27586;51.124;4.182;2024-02-16T08:18:12;4.90;;;4.15;;
41903;SDS011;27586;51.124;4.182;2024-02-16T08:20:38;4.90;;;4.40;;
41903;SDS011;27586;51.124;4.182;2024-02-16T08:23:04;5.70;;;4.00;;
41903;SDS011;27586;51.124;4.182;2024-02-16T08:25:29;6.65;;;4.35;;
41903;SDS011;27586;51.124;4.182;2024-02-16T08:27:55;5.63;;;3.90;;
41903;SDS011;27586;51.124;4.182;2024-02-16T08:30:21;6.90;;;4.10;;
41903;SDS011;27586;51.124;4.182;2024-02-16T08:32:47;7.28;;;3.75;;
41903;SDS011;27586;51.124;4.182;2024-02-16T08:35:13;8.77;;;4.38;;
41903;SDS011;27586;51.124;4.182;2024-02-16T08:37:42;6.97;;;4.50;;
41903;SDS011;27586;51.124;4.182;2024-02-16T08:40:07;4.85;;;4.03;;
41903;SDS011;27586;51.124;4.182;2024-02-16T08:42:39;4.30;;;3.90;;
41903;SDS011;27586;51.124;4.182;2024-02-16T08:45:08;5.88;;;4.20;;
41903;SDS011;27586;51.124;4.182;2024-02-16T08:47:34;4.97;;;4.38;;
41903;SDS011;27586;51.124;4.182;2024-02-16T08:49:59;6.28;;;4.43;;
41903;SDS011;27586;51.124;4.182;2024-02-16T08:52:25;8.02;;;4.47;;
41903;SDS011;27586;51.124;4.182;2024-02-16T08:54:51;4.68;;;3.85;;
41903;SDS011;27586;51.124;4.182;2024-02-16T08:57:17;6.75;;;4.82;;
41903;SDS011;27586;51.124;4.182;2024-02-16T08:59:43;6.47;;;3.97;;
41903;SDS011;27586;51.124;4.182;2024-02-16T09:02:09;4.88;;;4.15;;
41903;SDS011;27586;51.124;4.182;2024-02-16T09:04:35;6.57;;;4.22;;
41903;SDS011;27586;51.124;4.182;2024-02-16T09:07:01;4.78;;;4.13;;
41903;SDS011;27586;51.124;4.182;2024-02-16T09:09:28;4.22;;;3.75;;
41903;SDS011;27586;51.124;4.182;2024-02-16T09:11:53;5.55;;;3.92;;
41903;SDS011;27586;51.124;4.182;2024-02-16T09:14:19;5.95;;;4.25;;
41903;SDS011;27586;51.124;4.182;2024-02-16T09:16:48;6.85;;;4.00;;
41903;SDS011;27586;51.124;4.182;2024-02-16T09:19:16;6.78;;;4.40;;
41903;SDS011;27586;51.124;4.182;2024-02-16T09:21:42;5.90;;;4.10;;
41903;SDS011;27586;51.124;4.182;2024-02-16T09:24:07;6.18;;;4.13;;
41903;SDS011;27586;51.124;4.182;2024-02-16T09:26:35;6.40;;;4.47;;
41903;SDS011;27586;51.124;4.182;2024-02-16T09:29:01;5.25;;;4.35;;
41903;SDS011;27586;51.124;4.182;2024-02-16T09:31:27;4.50;;;3.78;;
41903;SDS011;27586;51.124;4.182;2024-02-16T09:33:53;7.38;;;4.43;;
41903;SDS011;27586;51.124;4.182;2024-02-16T09:36:18;9.63;;;4.80;;
41903;SDS011;27586;51.124;4.182;2024-02-16T09:38:44;6.50;;;4.40;;
41903;SDS011;27586;51.124;4.182;2024-02-16T09:41:10;6.55;;;4.20;;
41903;SDS011;27586;51.124;4.182;2024-02-16T09:43:36;7.13;;;4.40;;
41903;SDS011;27586;51.124;4.182;2024-02-16T09:46:04;8.93;;;4.85;;
41903;SDS011;27586;51.124;4.182;2024-02-16T09:48:30;5.53;;;4.57;;
41903;SDS011;27586;51.124;4.182;2024-02-16T09:50:57;8.20;;;4.90;;
41903;SDS011;27586;51.124;4.182;2024-02-16T09:53:27;6.45;;;4.53;;
41903;SDS011;27586;51.124;4.182;2024-02-16T09:55:54;6.93;;;4.80;;
41903;SDS011;27586;51.124;4.182;2024-02-16T09:58:20;7.75;;;4.68;;
41903;SDS011;27586;51.124;4.182;2024-02-16T10:03:36;9.57;;;6.10;;
41903;SDS011;27586;51.124;4.182;2024-02-16T10:06:05;11.07;;;5.55;;
41903;SDS011;27586;51.124;4.182;2024-02-16T10:08:32;8.40;;;5.68;;
41903;SDS011;27586;51.124;4.182;2024-02-16T10:11:05;7.07;;;6.05;;
41903;SDS011;27586;51.124;4.182;2024-02-16T10:13:31;8.68;;;6.07;;
41903;SDS011;27586;51.124;4.182;2024-02-16T10:16:07;6.47;;;5.65;;
41903;SDS011;27586;51.124;4.182;2024-02-16T10:18:37;7.65;;;6.15;;
41903;SDS011;27586;51.124;4.182;2024-02-16T10:21:03;9.90;;;6.00;;
41903;SDS011;27586;51.124;4.182;2024-02-16T10:23:29;11.27;;;6.53;;
41903;SDS011;27586;51.124;4.182;2024-02-16T10:25:56;10.80;;;6.63;;
41903;SDS011;27586;51.124;4.182;2024-02-16T10:28:24;12.05;;;6.68;;
41903;SDS011;27586;51.124;4.182;2024-02-16T10:30:55;9.23;;;6.72;;
41903;SDS011;27586;51.124;4.182;2024-02-16T10:33:26;7.80;;;6.43;;
41903;SDS011;27586;51.124;4.182;2024-02-16T10:35:58;10.75;;;8.05;;
41903;SDS011;27586;51.124;4.182;2024-02-16T10:38:25;9.90;;;6.97;;
41903;SDS011;27586;51.124;4.182;2024-02-16T10:40:52;10.63;;;8.35;;
41903;SDS011;27586;51.124;4.182;2024-02-16T10:43:21;9.95;;;7.00;;
41903;SDS011;27586;51.124;4.182;2024-02-16T10:45:47;9.73;;;6.93;;
41903;SDS011;27586;51.124;4.182;2024-02-16T10:48:17;10.07;;;7.05;;
41903;SDS011;27586;51.124;4.182;2024-02-16T10:50:43;9.13;;;7.00;;
41903;SDS011;27586;51.124;4.182;2024-02-16T10:55:48;10.65;;;7.63;;
41903;SDS011;27586;51.124;4.182;2024-02-16T10:58:14;7.75;;;6.93;;
41903;SDS011;27586;51.124;4.182;2024-02-16T11:00:49;9.60;;;7.50;;
41903;SDS011;27586;51.124;4.182;2024-02-16T11:03:16;8.43;;;7.55;;
41903;SDS011;27586;51.124;4.182;2024-02-16T11:05:48;8.93;;;7.63;;
41903;SDS011;27586;51.124;4.182;2024-02-16T11:08:15;8.57;;;7.75;;
41903;SDS011;27586;51.124;4.182;2024-02-16T11:10:57;9.77;;;7.55;;
41903;SDS011;27586;51.124;4.182;2024-02-16T11:13:31;11.07;;;8.32;;
41903;SDS011;27586;51.124;4.182;2024-02-16T11:15:59;11.38;;;8.43;;
41903;SDS011;27586;51.124;4.182;2024-02-16T11:18:28;9.65;;;8.10;;
41903;SDS011;27586;51.124;4.182;2024-02-16T11:20:55;13.00;;;8.55;;
41903;SDS011;27586;51.124;4.182;2024-02-16T11:23:30;10.43;;;9.43;;
41903;SDS011;27586;51.124;4.182;2024-02-16T11:26:00;9.27;;;8.25;;
41903;SDS011;27586;51.124;4.182;2024-02-16T11:28:27;10.68;;;9.30;;
41903;SDS011;27586;51.124;4.182;2024-02-16T11:30:55;10.90;;;9.82;;
41903;SDS011;27586;51.124;4.182;2024-02-16T11:33:21;11.85;;;10.65;;
41903;SDS011;27586;51.124;4.182;2024-02-16T11:35:56;12.50;;;11.20;;
41903;SDS011;27586;51.124;4.182;2024-02-16T11:38:24;12.50;;;11.30;;
41903;SDS011;27586;51.124;4.182;2024-02-16T11:40:57;12.45;;;11.18;;
41903;SDS011;27586;51.124;4.182;2024-02-16T11:43:23;13.05;;;11.75;;
41903;SDS011;27586;51.124;4.182;2024-02-16T11:45:50;12.43;;;11.27;;
41903;SDS011;27586;51.124;4.182;2024-02-16T11:48:23;12.07;;;10.77;;
41903;SDS011;27586;51.124;4.182;2024-02-16T11:50:58;12.90;;;11.63;;
41903;SDS011;27586;51.124;4.182;2024-02-16T11:53:31;11.85;;;10.80;;
41903;SDS011;27586;51.124;4.182;2024-02-16T11:55:57;12.07;;;10.90;;
41903;SDS011;27586;51.124;4.182;2024-02-16T11:58:23;12.00;;;10.90;;
41903;SDS011;27586;51.124;4.182;2024-02-16T12:00:50;12.93;;;11.57;;
41903;SDS011;27586;51.124;4.182;2024-02-16T12:03:23;12.45;;;11.43;;
41903;SDS011;27586;51.124;4.182;2024-02-16T12:05:53;13.73;;;12.45;;
41903;SDS011;27586;51.124;4.182;2024-02-16T12:08:20;13.93;;;12.52;;
41903;SDS011;27586;51.124;4.182;2024-02-16T12:10:50;15.05;;;13.75;;
41903;SDS011;27586;51.124;4.182;2024-02-16T12:13:17;15.60;;;14.20;;
41903;SDS011;27586;51.124;4.182;2024-02-16T12:15:49;16.95;;;15.55;;
41903;SDS011;27586;51.124;4.182;2024-02-16T12:18:22;14.40;;;13.10;;
41903;SDS011;27586;51.124;4.182;2024-02-16T12:21:05;15.68;;;14.30;;
41903;SDS011;27586;51.124;4.182;2024-02-16T12:23:31;12.43;;;11.32;;
41903;SDS011;27586;51.124;4.182;2024-02-16T12:26:01;9.63;;;8.73;;
41903;SDS011;27586;51.124;4.182;2024-02-16T12:28:28;7.57;;;6.97;;
41903;SDS011;27586;51.124;4.182;2024-02-16T12:30:57;7.32;;;6.70;;
41903;SDS011;27586;51.124;4.182;2024-02-16T12:33:23;7.25;;;6.65;;
41903;SDS011;27586;51.124;4.182;2024-02-16T12:35:49;7.00;;;5.97;;
41903;SDS011;27586;51.124;4.182;2024-02-16T12:38:15;6.57;;;5.90;;
41903;SDS011;27586;51.124;4.182;2024-02-16T12:40:47;5.72;;;5.22;;
41903;SDS011;27586;51.124;4.182;2024-02-16T12:43:16;5.30;;;4.90;;
41903;SDS011;27586;51.124;4.182;2024-02-16T12:45:43;6.22;;;5.63;;
41903;SDS011;27586;51.124;4.182;2024-02-16T12:48:09;5.20;;;4.75;;
41903;SDS011;27586;51.124;4.182;2024-02-16T12:50:35;4.97;;;4.40;;
41903;SDS011;27586;51.124;4.182;2024-02-16T12:53:02;4.53;;;4.13;;
41903;SDS011;27586;51.124;4.182;2024-02-16T12:55:28;6.00;;;4.10;;
41903;SDS011;27586;51.124;4.182;2024-02-16T12:57:55;4.43;;;3.92;;
41903;SDS011;27586;51.124;4.182;2024-02-16T13:00:21;5.22;;;4.55;;
41903;SDS011;27586;51.124;4.182;2024-02-16T13:02:47;5.38;;;4.32;;
41903;SDS011;27586;51.124;4.182;2024-02-16T13:05:13;5.20;;;4.70;;
41903;SDS011;27586;51.124;4.182;2024-02-16T13:07:39;8.45;;;4.72;;
41903;SDS011;27586;51.124;4.182;2024-02-16T13:10:06;6.15;;;5.55;;
41903;SDS011;27586;51.124;4.182;2024-02-16T13:12:33;6.07;;;5.28;;
41903;SDS011;27586;51.124;4.182;2024-02-16T13:14:59;5.03;;;4.53;;
41903;SDS011;27586;51.124;4.182;2024-02-16T13:17:25;4.53;;;4.13;;
41903;SDS011;27586;51.124;4.182;2024-02-16T13:19:51;3.97;;;3.67;;
41903;SDS011;27586;51.124;4.182;2024-02-16T13:22:17;4.65;;;3.80;;
41903;SDS011;27586;51.124;4.182;2024-02-16T13:24:43;4.72;;;4.20;;
41903;SDS011;27586;51.124;4.182;2024-02-16T13:27:09;3.60;;;3.30;;
41903;SDS011;27586;51.124;4.182;2024-02-16T13:29:35;3.83;;;3.53;;
41903;SDS011;27586;51.124;4.182;2024-02-16T13:32:00;3.47;;;3.17;;
41903;SDS011;27586;51.124;4.182;2024-02-16T13:34:28;4.70;;;3.45;;
41903;SDS011;27586;51.124;4.182;2024-02-16T13:36:55;4.03;;;3.40;;
41903;SDS011;27586;51.124;4.182;2024-02-16T13:39:21;3.40;;;3.15;;
41903;SDS011;27586;51.124;4.182;2024-02-16T13:41:47;4.10;;;3.80;;
41903;SDS011;27586;51.124;4.182;2024-02-16T13:44:15;3.72;;;3.13;;
41903;SDS011;27586;51.124;4.182;2024-02-16T13:46:42;3.28;;;2.97;;
41903;SDS011;27586;51.124;4.182;2024-02-16T13:49:12;3.97;;;3.58;;
41903;SDS011;27586;51.124;4.182;2024-02-16T13:51:39;3.63;;;3.17;;
41903;SDS011;27586;51.124;4.182;2024-02-16T13:54:05;3.90;;;3.50;;
41903;SDS011;27586;51.124;4.182;2024-02-16T13:56:30;3.30;;;3.00;;
41903;SDS011;27586;51.124;4.182;2024-02-16T13:58:56;5.15;;;3.47;;
41903;SDS011;27586;51.124;4.182;2024-02-16T14:01:22;3.90;;;2.90;;
41903;SDS011;27586;51.124;4.182;2024-02-16T14:03:49;3.33;;;3.03;;
41903;SDS011;27586;51.124;4.182;2024-02-16T14:06:16;4.32;;;3.40;;
41903;SDS011;27586;51.124;4.182;2024-02-16T14:08:41;3.58;;;3.28;;
41903;SDS011;27586;51.124;4.182;2024-02-16T14:11:07;4.38;;;3.88;;
41903;SDS011;27586;51.124;4.182;2024-02-16T14:13:34;4.20;;;3.67;;
41903;SDS011;27586;51.124;4.182;2024-02-16T14:16:00;4.68;;;3.60;;
41903;SDS011;27586;51.124;4.182;2024-02-16T14:18:26;4.30;;;3.90;;
41903;SDS011;27586;51.124;4.182;2024-02-16T14:20:51;4.95;;;4.07;;
41903;SDS011;27586;51.124;4.182;2024-02-16T14:23:17;4.53;;;4.15;;
41903;SDS011;27586;51.124;4.182;2024-02-16T14:25:42;4.00;;;3.60;;
41903;SDS011;27586;51.124;4.182;2024-02-16T14:28:08;4.38;;;4.05;;
41903;SDS011;27586;51.124;4.182;2024-02-16T14:30:34;4.72;;;4.20;;
41903;SDS011;27586;51.124;4.182;2024-02-16T14:33:00;4.80;;;4.25;;
41903;SDS011;27586;51.124;4.182;2024-02-16T14:35:26;4.65;;;4.18;;
41903;SDS011;27586;51.124;4.182;2024-02-16T14:37:51;4.60;;;3.50;;
41903;SDS011;27586;51.124;4.182;2024-02-16T14:40:17;3.05;;;2.85;;
41903;SDS011;27586;51.124;4.182;2024-02-16T14:42:43;3.33;;;3.03;;
41903;SDS011;27586;51.124;4.182;2024-02-16T14:45:08;3.30;;;3.00;;
41903;SDS011;27586;51.124;4.182;2024-02-16T14:47:43;3.47;;;2.60;;